sensor_id;sensor_type;location;lat;lon;timestamp;P1;durP1;ratioP1;P2;durP2;ratioP2
9960;SDS011;5021;51.506;11.320;2024-03-29T00:00:26;14.20;;;8.83;;
9960;SDS011;5021;51.506;11.320;2024-03-29T00:02:52;10.93;;;6.90;;
9960;SDS011;5021;51.506;11.320;2024-03-29T00:05:17;13.97;;;8.30;;
9960;SDS011;5021;51.506;11.320;2024-03-29T00:07:43;13.73;;;8.07;;
9960;SDS011;5021;51.506;11.320;2024-03-29T00:10:09;13.17;;;8.40;;
9960;SDS011;5021;51.506;11.320;2024-03-29T00:12:35;13.30;;;7.97;;
9960;SDS011;5021;51.506;11.320;2024-03-29T00:15:01;10.70;;;7.50;;
9960;SDS011;5021;51.506;11.320;2024-03-29T00:17:27;12.90;;;7.50;;
9960;SDS011;5021;51.506;11.320;2024-03-29T00:19:53;11.83;;;7.80;;
9960;SDS011;5021;51.506;11.320;2024-03-29T00:22:19;12.60;;;8.30;;
9960;SDS011;5021;51.506;11.320;2024-03-29T00:24:45;12.93;;;7.57;;
9960;SDS011;5021;51.506;11.320;2024-03-29T00:27:11;12.37;;;7.27;;
9960;SDS011;5021;51.506;11.320;2024-03-29T00:29:36;11.03;;;7.40;;
9960;SDS011;5021;51.506;11.320;2024-03-29T00:32:03;12.73;;;7.00;;
9960;SDS011;5021;51.506;11.320;2024-03-29T00:34:29;9.93;;;6.53;;
9960;SDS011;5021;51.506;11.320;2024-03-29T00:36:54;8.23;;;5.53;;
9960;SDS011;5021;51.506;11.320;2024-03-29T00:39:20;9.43;;;5.77;;
9960;SDS011;5021;51.506;11.320;2024-03-29T00:41:47;9.60;;;5.40;;
9960;SDS011;5021;51.506;11.320;2024-03-29T00:44:13;9.20;;;5.33;;
9960;SDS011;5021;51.506;11.320;2024-03-29T00:46:39;11.17;;;7.37;;
9960;SDS011;5021;51.506;11.320;2024-03-29T00:49:05;10.90;;;7.63;;
9960;SDS011;5021;51.506;11.320;2024-03-29T00:51:31;10.30;;;6.07;;
9960;SDS011;5021;51.506;11.320;2024-03-29T00:53:57;10.13;;;6.80;;
9960;SDS011;5021;51.506;11.320;2024-03-29T00:56:22;10.67;;;6.60;;
9960;SDS011;5021;51.506;11.320;2024-03-29T00:58:48;12.90;;;7.20;;
9960;SDS011;5021;51.506;11.320;2024-03-29T01:01:14;13.50;;;7.83;;
9960;SDS011;5021;51.506;11.320;2024-03-29T01:03:41;11.67;;;6.70;;
9960;SDS011;5021;51.506;11.320;2024-03-29T01:06:06;11.17;;;6.77;;
9960;SDS011;5021;51.506;11.320;2024-03-29T01:08:32;11.47;;;6.30;;
9960;SDS011;5021;51.506;11.320;2024-03-29T01:10:58;8.67;;;5.90;;
9960;SDS011;5021;51.506;11.320;2024-03-29T01:13:24;9.20;;;6.03;;
9960;SDS011;5021;51.506;11.320;2024-03-29T01:15:50;8.17;;;5.60;;
9960;SDS011;5021;51.506;11.320;2024-03-29T01:18:16;9.47;;;6.37;;
9960;SDS011;5021;51.506;11.320;2024-03-29T01:20:42;8.93;;;5.70;;
9960;SDS011;5021;51.506;11.320;2024-03-29T01:23:08;7.43;;;5.27;;
9960;SDS011;5021;51.506;11.320;2024-03-29T01:25:34;8.87;;;5.13;;
9960;SDS011;5021;51.506;11.320;2024-03-29T01:28:00;9.83;;;6.47;;
9960;SDS011;5021;51.506;11.320;2024-03-29T01:30:26;8.87;;;5.47;;
9960;SDS011;5021;51.506;11.320;2024-03-29T01:32:52;8.27;;;5.43;;
9960;SDS011;5021;51.506;11.320;2024-03-29T01:35:18;8.73;;;5.57;;
9960;SDS011;5021;51.506;11.320;2024-03-29T01:37:44;10.43;;;5.60;;
9960;SDS011;5021;51.506;11.320;2024-03-29T01:40:10;8.80;;;5.87;;
9960;SDS011;5021;51.506;11.320;2024-03-29T01:42:36;7.90;;;5.50;;
9960;SDS011;5021;51.506;11.320;2024-03-29T01:45:02;10.00;;;6.20;;
9960;SDS011;5021;51.506;11.320;2024-03-29T01:47:28;9.23;;;5.90;;
9960;SDS011;5021;51.506;11.320;2024-03-29T01:49:54;9.73;;;7.10;;
9960;SDS011;5021;51.506;11.320;2024-03-29T01:52:20;11.77;;;7.13;;
9960;SDS011;5021;51.506;11.320;2024-03-29T01:54:46;10.10;;;7.47;;
9960;SDS011;5021;51.506;11.320;2024-03-29T01:57:12;12.53;;;7.30;;
9960;SDS011;5021;51.506;11.320;2024-03-29T01:59:40;14.83;;;7.90;;
9960;SDS011;5021;51.506;11.320;2024-03-29T02:02:06;15.53;;;7.53;;
9960;SDS011;5021;51.506;11.320;2024-03-29T02:04:32;11.47;;;6.97;;
9960;SDS011;5021;51.506;11.320;2024-03-29T02:06:58;9.13;;;6.13;;
9960;SDS011;5021;51.506;11.320;2024-03-29T02:09:24;14.67;;;6.63;;
9960;SDS011;5021;51.506;11.320;2024-03-29T02:11:50;10.90;;;5.73;;
9960;SDS011;5021;51.506;11.320;2024-03-29T02:14:16;10.90;;;5.60;;
9960;SDS011;5021;51.506;11.320;2024-03-29T02:16:42;8.50;;;4.30;;
9960;SDS011;5021;51.506;11.320;2024-03-29T02:19:08;10.57;;;5.90;;
9960;SDS011;5021;51.506;11.320;2024-03-29T02:21:34;10.90;;;5.97;;
9960;SDS011;5021;51.506;11.320;2024-03-29T02:24:06;9.10;;;4.97;;
9960;SDS011;5021;51.506;11.320;2024-03-29T02:26:33;7.60;;;4.70;;
9960;SDS011;5021;51.506;11.320;2024-03-29T02:29:01;5.77;;;3.77;;
9960;SDS011;5021;51.506;11.320;2024-03-29T02:31:27;6.40;;;2.87;;
9960;SDS011;5021;51.506;11.320;2024-03-29T02:33:53;4.70;;;2.97;;
9960;SDS011;5021;51.506;11.320;2024-03-29T02:36:19;4.23;;;3.20;;
9960;SDS011;5021;51.506;11.320;2024-03-29T02:38:45;7.80;;;4.03;;
9960;SDS011;5021;51.506;11.320;2024-03-29T02:41:11;5.63;;;3.37;;
9960;SDS011;5021;51.506;11.320;2024-03-29T02:43:36;6.90;;;5.03;;
9960;SDS011;5021;51.506;11.320;2024-03-29T02:46:02;11.30;;;5.40;;
9960;SDS011;5021;51.506;11.320;2024-03-29T02:48:28;8.90;;;4.90;;
9960;SDS011;5021;51.506;11.320;2024-03-29T02:50:54;7.17;;;4.67;;
9960;SDS011;5021;51.506;11.320;2024-03-29T02:53:20;7.93;;;4.50;;
9960;SDS011;5021;51.506;11.320;2024-03-29T02:55:46;8.07;;;3.90;;
9960;SDS011;5021;51.506;11.320;2024-03-29T02:58:12;7.53;;;4.00;;
9960;SDS011;5021;51.506;11.320;2024-03-29T03:00:38;7.07;;;4.50;;
9960;SDS011;5021;51.506;11.320;2024-03-29T03:03:04;6.43;;;4.43;;
9960;SDS011;5021;51.506;11.320;2024-03-29T03:05:30;10.73;;;5.00;;
9960;SDS011;5021;51.506;11.320;2024-03-29T03:07:57;6.97;;;4.30;;
9960;SDS011;5021;51.506;11.320;2024-03-29T03:10:48;8.53;;;4.53;;
9960;SDS011;5021;51.506;11.320;2024-03-29T03:13:26;9.93;;;4.77;;
9960;SDS011;5021;51.506;11.320;2024-03-29T03:15:53;10.23;;;5.87;;
9960;SDS011;5021;51.506;11.320;2024-03-29T03:18:18;8.03;;;4.90;;
9960;SDS011;5021;51.506;11.320;2024-03-29T03:20:54;11.40;;;5.50;;
9960;SDS011;5021;51.506;11.320;2024-03-29T03:23:20;11.10;;;5.50;;
9960;SDS011;5021;51.506;11.320;2024-03-29T03:25:54;11.63;;;4.97;;
9960;SDS011;5021;51.506;11.320;2024-03-29T03:28:20;7.37;;;4.20;;
9960;SDS011;5021;51.506;11.320;2024-03-29T03:30:46;7.67;;;4.60;;
9960;SDS011;5021;51.506;11.320;2024-03-29T03:33:12;7.20;;;4.10;;
9960;SDS011;5021;51.506;11.320;2024-03-29T03:35:38;8.87;;;4.53;;
9960;SDS011;5021;51.506;11.320;2024-03-29T03:38:04;9.27;;;5.10;;
9960;SDS011;5021;51.506;11.320;2024-03-29T03:40:30;7.70;;;4.73;;
9960;SDS011;5021;51.506;11.320;2024-03-29T03:42:56;9.77;;;4.77;;
9960;SDS011;5021;51.506;11.320;2024-03-29T03:45:22;8.70;;;4.70;;
9960;SDS011;5021;51.506;11.320;2024-03-29T03:47:48;8.80;;;4.40;;
9960;SDS011;5021;51.506;11.320;2024-03-29T03:50:14;6.80;;;4.03;;
9960;SDS011;5021;51.506;11.320;2024-03-29T03:52:40;8.13;;;4.40;;
9960;SDS011;5021;51.506;11.320;2024-03-29T03:55:06;8.00;;;5.17;;
9960;SDS011;5021;51.506;11.320;2024-03-29T03:57:31;6.47;;;4.60;;
9960;SDS011;5021;51.506;11.320;2024-03-29T03:59:59;10.07;;;5.70;;
9960;SDS011;5021;51.506;11.320;2024-03-29T04:02:24;9.27;;;4.63;;
9960;SDS011;5021;51.506;11.320;2024-03-29T04:04:50;6.93;;;4.70;;
9960;SDS011;5021;51.506;11.320;2024-03-29T04:07:16;7.53;;;4.97;;
9960;SDS011;5021;51.506;11.320;2024-03-29T04:09:42;8.20;;;4.67;;
9960;SDS011;5021;51.506;11.320;2024-03-29T04:12:08;7.83;;;4.20;;
9960;SDS011;5021;51.506;11.320;2024-03-29T04:14:34;9.50;;;4.80;;
9960;SDS011;5021;51.506;11.320;2024-03-29T04:17:00;7.47;;;4.60;;
9960;SDS011;5021;51.506;11.320;2024-03-29T04:19:26;8.87;;;4.40;;
9960;SDS011;5021;51.506;11.320;2024-03-29T04:21:52;6.53;;;4.20;;
9960;SDS011;5021;51.506;11.320;2024-03-29T04:24:18;8.93;;;4.30;;
9960;SDS011;5021;51.506;11.320;2024-03-29T04:26:44;7.73;;;4.43;;
9960;SDS011;5021;51.506;11.320;2024-03-29T04:29:12;10.67;;;4.43;;
9960;SDS011;5021;51.506;11.320;2024-03-29T04:31:38;6.07;;;4.23;;
9960;SDS011;5021;51.506;11.320;2024-03-29T04:34:05;8.17;;;4.07;;
9960;SDS011;5021;51.506;11.320;2024-03-29T04:36:31;7.60;;;3.97;;
9960;SDS011;5021;51.506;11.320;2024-03-29T04:38:56;7.23;;;3.90;;
9960;SDS011;5021;51.506;11.320;2024-03-29T04:41:22;8.87;;;3.93;;
9960;SDS011;5021;51.506;11.320;2024-03-29T04:43:49;5.77;;;4.00;;
9960;SDS011;5021;51.506;11.320;2024-03-29T04:46:15;5.93;;;3.87;;
9960;SDS011;5021;51.506;11.320;2024-03-29T04:48:42;10.43;;;3.63;;
9960;SDS011;5021;51.506;11.320;2024-03-29T04:51:11;7.43;;;3.87;;
9960;SDS011;5021;51.506;11.320;2024-03-29T04:53:38;5.80;;;3.93;;
9960;SDS011;5021;51.506;11.320;2024-03-29T04:56:04;6.37;;;3.87;;
9960;SDS011;5021;51.506;11.320;2024-03-29T04:58:30;8.17;;;4.40;;
9960;SDS011;5021;51.506;11.320;2024-03-29T05:00:57;9.27;;;5.00;;
9960;SDS011;5021;51.506;11.320;2024-03-29T05:03:23;6.60;;;4.73;;
9960;SDS011;5021;51.506;11.320;2024-03-29T05:05:49;8.43;;;5.07;;
9960;SDS011;5021;51.506;11.320;2024-03-29T05:08:15;11.10;;;5.40;;
9960;SDS011;5021;51.506;11.320;2024-03-29T05:10:42;8.80;;;4.83;;
9960;SDS011;5021;51.506;11.320;2024-03-29T05:13:08;6.57;;;4.40;;
9960;SDS011;5021;51.506;11.320;2024-03-29T05:15:34;8.07;;;4.53;;
9960;SDS011;5021;51.506;11.320;2024-03-29T05:18:00;9.57;;;6.60;;
9960;SDS011;5021;51.506;11.320;2024-03-29T05:20:26;12.30;;;6.87;;
9960;SDS011;5021;51.506;11.320;2024-03-29T05:22:52;9.20;;;5.40;;
9960;SDS011;5021;51.506;11.320;2024-03-29T05:25:18;7.83;;;4.23;;
9960;SDS011;5021;51.506;11.320;2024-03-29T05:27:44;7.73;;;4.33;;
9960;SDS011;5021;51.506;11.320;2024-03-29T05:30:10;7.63;;;4.50;;
9960;SDS011;5021;51.506;11.320;2024-03-29T05:32:36;7.03;;;3.80;;
9960;SDS011;5021;51.506;11.320;2024-03-29T05:35:02;4.90;;;3.20;;
9960;SDS011;5021;51.506;11.320;2024-03-29T05:37:28;5.97;;;4.10;;
9960;SDS011;5021;51.506;11.320;2024-03-29T05:39:54;7.87;;;4.97;;
9960;SDS011;5021;51.506;11.320;2024-03-29T05:42:27;8.57;;;4.70;;
9960;SDS011;5021;51.506;11.320;2024-03-29T05:44:53;7.67;;;4.50;;
9960;SDS011;5021;51.506;11.320;2024-03-29T05:47:19;6.30;;;4.37;;
9960;SDS011;5021;51.506;11.320;2024-03-29T05:49:45;5.60;;;4.43;;
9960;SDS011;5021;51.506;11.320;2024-03-29T05:52:11;9.20;;;6.57;;
9960;SDS011;5021;51.506;11.320;2024-03-29T05:54:40;7.03;;;4.33;;
9960;SDS011;5021;51.506;11.320;2024-03-29T05:57:06;7.40;;;4.53;;
9960;SDS011;5021;51.506;11.320;2024-03-29T05:59:33;9.70;;;6.23;;
9960;SDS011;5021;51.506;11.320;2024-03-29T06:01:59;6.53;;;4.83;;
9960;SDS011;5021;51.506;11.320;2024-03-29T06:04:25;8.43;;;4.50;;
9960;SDS011;5021;51.506;11.320;2024-03-29T06:07:02;9.73;;;5.00;;
9960;SDS011;5021;51.506;11.320;2024-03-29T06:09:29;6.90;;;3.93;;
9960;SDS011;5021;51.506;11.320;2024-03-29T06:11:55;5.77;;;3.70;;
9960;SDS011;5021;51.506;11.320;2024-03-29T06:14:22;4.97;;;3.20;;
9960;SDS011;5021;51.506;11.320;2024-03-29T06:17:07;4.47;;;3.40;;
9960;SDS011;5021;51.506;11.320;2024-03-29T06:19:48;4.83;;;3.17;;
9960;SDS011;5021;51.506;11.320;2024-03-29T06:22:15;6.10;;;4.20;;
9960;SDS011;5021;51.506;11.320;2024-03-29T06:24:42;9.57;;;7.33;;
9960;SDS011;5021;51.506;11.320;2024-03-29T06:27:11;10.67;;;6.60;;
9960;SDS011;5021;51.506;11.320;2024-03-29T06:29:38;8.97;;;6.47;;
9960;SDS011;5021;51.506;11.320;2024-03-29T06:32:04;10.00;;;7.80;;
9960;SDS011;5021;51.506;11.320;2024-03-29T06:34:30;11.77;;;9.50;;
9960;SDS011;5021;51.506;11.320;2024-03-29T06:36:56;11.53;;;8.97;;
9960;SDS011;5021;51.506;11.320;2024-03-29T06:39:22;15.97;;;13.60;;
9960;SDS011;5021;51.506;11.320;2024-03-29T06:41:50;23.03;;;16.60;;
9960;SDS011;5021;51.506;11.320;2024-03-29T06:44:16;19.23;;;14.30;;
9960;SDS011;5021;51.506;11.320;2024-03-29T06:46:42;21.07;;;15.17;;
9960;SDS011;5021;51.506;11.320;2024-03-29T06:49:08;24.03;;;17.10;;
9960;SDS011;5021;51.506;11.320;2024-03-29T06:51:34;17.60;;;12.70;;
9960;SDS011;5021;51.506;11.320;2024-03-29T06:54:00;16.43;;;12.63;;
9960;SDS011;5021;51.506;11.320;2024-03-29T06:56:26;19.03;;;12.73;;
9960;SDS011;5021;51.506;11.320;2024-03-29T06:58:52;12.57;;;9.70;;
9960;SDS011;5021;51.506;11.320;2024-03-29T07:01:18;12.23;;;8.07;;
9960;SDS011;5021;51.506;11.320;2024-03-29T07:03:43;11.13;;;8.07;;
9960;SDS011;5021;51.506;11.320;2024-03-29T07:06:09;12.17;;;8.87;;
9960;SDS011;5021;51.506;11.320;2024-03-29T07:08:35;16.00;;;12.30;;
9960;SDS011;5021;51.506;11.320;2024-03-29T07:11:01;20.90;;;13.20;;
9960;SDS011;5021;51.506;11.320;2024-03-29T07:13:28;22.97;;;15.73;;
9960;SDS011;5021;51.506;11.320;2024-03-29T07:15:58;24.40;;;15.93;;
9960;SDS011;5021;51.506;11.320;2024-03-29T07:18:24;23.60;;;14.53;;
9960;SDS011;5021;51.506;11.320;2024-03-29T07:20:50;18.17;;;12.60;;
9960;SDS011;5021;51.506;11.320;2024-03-29T07:23:16;16.50;;;10.27;;
9960;SDS011;5021;51.506;11.320;2024-03-29T07:25:45;14.00;;;10.10;;
9960;SDS011;5021;51.506;11.320;2024-03-29T07:28:11;13.23;;;8.83;;
9960;SDS011;5021;51.506;11.320;2024-03-29T07:30:39;11.50;;;8.57;;
9960;SDS011;5021;51.506;11.320;2024-03-29T07:33:05;11.60;;;8.33;;
9960;SDS011;5021;51.506;11.320;2024-03-29T07:35:31;13.23;;;9.17;;
9960;SDS011;5021;51.506;11.320;2024-03-29T07:37:57;8.97;;;7.37;;
9960;SDS011;5021;51.506;11.320;2024-03-29T07:40:24;10.27;;;6.70;;
9960;SDS011;5021;51.506;11.320;2024-03-29T07:42:50;7.17;;;4.53;;
9960;SDS011;5021;51.506;11.320;2024-03-29T07:45:16;7.00;;;4.30;;
9960;SDS011;5021;51.506;11.320;2024-03-29T07:47:42;5.77;;;3.83;;
9960;SDS011;5021;51.506;11.320;2024-03-29T07:50:08;4.57;;;3.17;;
9960;SDS011;5021;51.506;11.320;2024-03-29T07:52:35;4.20;;;2.33;;
9960;SDS011;5021;51.506;11.320;2024-03-29T07:55:01;5.50;;;2.30;;
9960;SDS011;5021;51.506;11.320;2024-03-29T07:57:27;2.90;;;1.93;;
9960;SDS011;5021;51.506;11.320;2024-03-29T07:59:53;2.40;;;1.60;;
9960;SDS011;5021;51.506;11.320;2024-03-29T08:02:18;2.67;;;1.80;;
9960;SDS011;5021;51.506;11.320;2024-03-29T08:04:44;2.73;;;1.80;;
9960;SDS011;5021;51.506;11.320;2024-03-29T08:07:10;2.97;;;1.90;;
9960;SDS011;5021;51.506;11.320;2024-03-29T08:09:37;4.67;;;1.80;;
9960;SDS011;5021;51.506;11.320;2024-03-29T08:12:06;2.77;;;1.77;;
9960;SDS011;5021;51.506;11.320;2024-03-29T08:14:32;4.77;;;1.80;;
9960;SDS011;5021;51.506;11.320;2024-03-29T08:16:58;2.90;;;2.13;;
9960;SDS011;5021;51.506;11.320;2024-03-29T08:19:29;2.13;;;1.90;;
9960;SDS011;5021;51.506;11.320;2024-03-29T08:21:55;1.97;;;1.50;;
9960;SDS011;5021;51.506;11.320;2024-03-29T08:24:21;2.47;;;1.50;;
9960;SDS011;5021;51.506;11.320;2024-03-29T08:26:47;2.70;;;1.80;;
9960;SDS011;5021;51.506;11.320;2024-03-29T08:29:13;2.40;;;1.60;;
9960;SDS011;5021;51.506;11.320;2024-03-29T08:31:39;2.40;;;1.73;;
9960;SDS011;5021;51.506;11.320;2024-03-29T08:34:04;3.47;;;2.03;;
9960;SDS011;5021;51.506;11.320;2024-03-29T08:36:32;2.97;;;1.50;;
9960;SDS011;5021;51.506;11.320;2024-03-29T08:38:58;2.87;;;1.50;;
9960;SDS011;5021;51.506;11.320;2024-03-29T08:41:24;2.07;;;1.60;;
9960;SDS011;5021;51.506;11.320;2024-03-29T08:43:49;3.17;;;2.00;;
9960;SDS011;5021;51.506;11.320;2024-03-29T08:46:15;4.17;;;2.50;;
9960;SDS011;5021;51.506;11.320;2024-03-29T08:48:41;4.77;;;3.33;;
9960;SDS011;5021;51.506;11.320;2024-03-29T08:51:08;3.73;;;3.00;;
9960;SDS011;5021;51.506;11.320;2024-03-29T08:53:35;5.37;;;4.47;;
9960;SDS011;5021;51.506;11.320;2024-03-29T08:56:01;5.00;;;3.27;;
9960;SDS011;5021;51.506;11.320;2024-03-29T08:58:26;3.70;;;1.90;;
9960;SDS011;5021;51.506;11.320;2024-03-29T09:00:53;2.53;;;1.70;;
9960;SDS011;5021;51.506;11.320;2024-03-29T09:03:20;2.07;;;1.60;;
9960;SDS011;5021;51.506;11.320;2024-03-29T09:05:46;1.33;;;1.23;;
9960;SDS011;5021;51.506;11.320;2024-03-29T09:08:12;2.40;;;1.70;;
9960;SDS011;5021;51.506;11.320;2024-03-29T09:10:38;2.93;;;1.50;;
9960;SDS011;5021;51.506;11.320;2024-03-29T09:13:04;2.27;;;1.50;;
9960;SDS011;5021;51.506;11.320;2024-03-29T09:15:32;3.00;;;1.50;;
9960;SDS011;5021;51.506;11.320;2024-03-29T09:17:58;2.03;;;1.50;;
9960;SDS011;5021;51.506;11.320;2024-03-29T09:20:28;1.33;;;1.20;;
9960;SDS011;5021;51.506;11.320;2024-03-29T09:22:53;2.17;;;1.30;;
9960;SDS011;5021;51.506;11.320;2024-03-29T09:25:19;2.67;;;1.47;;
9960;SDS011;5021;51.506;11.320;2024-03-29T09:27:45;2.47;;;1.40;;
9960;SDS011;5021;51.506;11.320;2024-03-29T09:30:13;2.40;;;1.43;;
9960;SDS011;5021;51.506;11.320;2024-03-29T09:32:40;2.37;;;1.80;;
9960;SDS011;5021;51.506;11.320;2024-03-29T09:35:06;2.60;;;2.00;;
9960;SDS011;5021;51.506;11.320;2024-03-29T09:37:32;2.30;;;1.63;;
9960;SDS011;5021;51.506;11.320;2024-03-29T09:40:01;2.00;;;1.60;;
9960;SDS011;5021;51.506;11.320;2024-03-29T09:42:27;2.93;;;2.10;;
9960;SDS011;5021;51.506;11.320;2024-03-29T09:44:55;1.97;;;1.50;;
9960;SDS011;5021;51.506;11.320;2024-03-29T09:47:22;2.97;;;2.27;;
9960;SDS011;5021;51.506;11.320;2024-03-29T09:49:49;1.60;;;1.40;;
9960;SDS011;5021;51.506;11.320;2024-03-29T09:52:16;2.13;;;1.63;;
9960;SDS011;5021;51.506;11.320;2024-03-29T09:54:42;2.23;;;1.80;;
9960;SDS011;5021;51.506;11.320;2024-03-29T09:57:08;1.63;;;1.37;;
9960;SDS011;5021;51.506;11.320;2024-03-29T09:59:35;1.33;;;1.23;;
9960;SDS011;5021;51.506;11.320;2024-03-29T10:02:03;1.70;;;1.37;;
9960;SDS011;5021;51.506;11.320;2024-03-29T10:04:29;1.83;;;1.60;;
9960;SDS011;5021;51.506;11.320;2024-03-29T10:06:56;1.20;;;1.10;;
9960;SDS011;5021;51.506;11.320;2024-03-29T10:09:22;1.07;;;0.97;;
9960;SDS011;5021;51.506;11.320;2024-03-29T10:11:52;1.63;;;1.50;;
9960;SDS011;5021;51.506;11.320;2024-03-29T10:14:18;1.60;;;1.50;;
9960;SDS011;5021;51.506;11.320;2024-03-29T10:16:45;1.10;;;1.00;;
9960;SDS011;5021;51.506;11.320;2024-03-29T10:19:11;3.27;;;1.00;;
9960;SDS011;5021;51.506;11.320;2024-03-29T10:21:37;1.20;;;1.10;;
9960;SDS011;5021;51.506;11.320;2024-03-29T10:24:11;2.37;;;1.53;;
9960;SDS011;5021;51.506;11.320;2024-03-29T10:26:38;1.27;;;1.17;;
9960;SDS011;5021;51.506;11.320;2024-03-29T10:29:05;2.03;;;1.43;;
9960;SDS011;5021;51.506;11.320;2024-03-29T10:31:37;2.23;;;1.33;;
9960;SDS011;5021;51.506;11.320;2024-03-29T10:34:03;1.30;;;1.00;;
9960;SDS011;5021;51.506;11.320;2024-03-29T10:36:33;2.53;;;1.13;;
9960;SDS011;5021;51.506;11.320;2024-03-29T10:39:04;2.03;;;1.10;;
9960;SDS011;5021;51.506;11.320;2024-03-29T10:41:39;1.33;;;1.17;;
9960;SDS011;5021;51.506;11.320;2024-03-29T10:44:07;1.83;;;1.10;;
9960;SDS011;5021;51.506;11.320;2024-03-29T10:46:35;1.23;;;1.07;;
9960;SDS011;5021;51.506;11.320;2024-03-29T10:49:03;1.33;;;1.23;;
9960;SDS011;5021;51.506;11.320;2024-03-29T10:51:30;1.30;;;1.00;;
9960;SDS011;5021;51.506;11.320;2024-03-29T10:53:56;2.03;;;1.20;;
9960;SDS011;5021;51.506;11.320;2024-03-29T10:56:24;1.37;;;1.10;;
9960;SDS011;5021;51.506;11.320;2024-03-29T10:58:50;1.17;;;1.00;;
9960;SDS011;5021;51.506;11.320;2024-03-29T11:01:18;3.10;;;1.17;;
9960;SDS011;5021;51.506;11.320;2024-03-29T11:03:45;1.10;;;1.00;;
9960;SDS011;5021;51.506;11.320;2024-03-29T11:06:15;1.70;;;1.30;;
9960;SDS011;5021;51.506;11.320;2024-03-29T11:08:41;1.20;;;1.10;;
9960;SDS011;5021;51.506;11.320;2024-03-29T11:11:12;1.40;;;1.10;;
9960;SDS011;5021;51.506;11.320;2024-03-29T11:16:43;1.20;;;1.10;;
9960;SDS011;5021;51.506;11.320;2024-03-29T11:19:14;1.30;;;1.20;;
9960;SDS011;5021;51.506;11.320;2024-03-29T11:21:41;2.93;;;1.57;;
9960;SDS011;5021;51.506;11.320;2024-03-29T11:24:09;1.40;;;1.00;;
9960;SDS011;5021;51.506;11.320;2024-03-29T11:26:36;1.10;;;0.90;;
9960;SDS011;5021;51.506;11.320;2024-03-29T11:29:02;4.50;;;1.53;;
9960;SDS011;5021;51.506;11.320;2024-03-29T11:31:28;1.93;;;1.40;;
9960;SDS011;5021;51.506;11.320;2024-03-29T11:33:57;2.53;;;1.20;;
9960;SDS011;5021;51.506;11.320;2024-03-29T11:36:24;1.63;;;1.20;;
9960;SDS011;5021;51.506;11.320;2024-03-29T11:38:51;1.97;;;1.23;;
9960;SDS011;5021;51.506;11.320;2024-03-29T11:41:17;1.13;;;1.03;;
9960;SDS011;5021;51.506;11.320;2024-03-29T11:43:44;1.67;;;1.20;;
9960;SDS011;5021;51.506;11.320;2024-03-29T11:46:10;1.73;;;1.20;;
9960;SDS011;5021;51.506;11.320;2024-03-29T11:48:37;1.27;;;1.13;;
9960;SDS011;5021;51.506;11.320;2024-03-29T11:51:04;3.03;;;1.20;;
9960;SDS011;5021;51.506;11.320;2024-03-29T11:53:31;1.47;;;1.00;;
9960;SDS011;5021;51.506;11.320;2024-03-29T11:55:57;1.10;;;1.00;;
9960;SDS011;5021;51.506;11.320;2024-03-29T11:58:24;2.57;;;1.10;;
9960;SDS011;5021;51.506;11.320;2024-03-29T12:00:50;1.43;;;0.90;;
9960;SDS011;5021;51.506;11.320;2024-03-29T12:03:16;1.67;;;1.20;;
9960;SDS011;5021;51.506;11.320;2024-03-29T12:05:43;1.87;;;1.30;;
9960;SDS011;5021;51.506;11.320;2024-03-29T12:08:09;2.13;;;1.30;;
9960;SDS011;5021;51.506;11.320;2024-03-29T12:10:36;1.47;;;1.27;;
9960;SDS011;5021;51.506;11.320;2024-03-29T12:13:02;1.83;;;1.00;;
9960;SDS011;5021;51.506;11.320;2024-03-29T12:15:29;1.67;;;1.03;;
9960;SDS011;5021;51.506;11.320;2024-03-29T12:17:58;1.10;;;0.83;;
9960;SDS011;5021;51.506;11.320;2024-03-29T12:20:26;2.03;;;1.17;;
9960;SDS011;5021;51.506;11.320;2024-03-29T12:22:54;1.10;;;1.00;;
9960;SDS011;5021;51.506;11.320;2024-03-29T12:25:20;1.70;;;1.20;;
9960;SDS011;5021;51.506;11.320;2024-03-29T12:27:46;1.33;;;1.20;;
9960;SDS011;5021;51.506;11.320;2024-03-29T12:30:13;1.40;;;1.20;;
9960;SDS011;5021;51.506;11.320;2024-03-29T12:32:39;1.33;;;1.10;;
9960;SDS011;5021;51.506;11.320;2024-03-29T12:35:12;1.70;;;1.37;;
9960;SDS011;5021;51.506;11.320;2024-03-29T12:37:38;2.10;;;1.50;;
9960;SDS011;5021;51.506;11.320;2024-03-29T12:40:04;2.00;;;1.53;;
9960;SDS011;5021;51.506;11.320;2024-03-29T12:42:40;1.57;;;1.47;;
9960;SDS011;5021;51.506;11.320;2024-03-29T12:45:06;3.43;;;1.80;;
9960;SDS011;5021;51.506;11.320;2024-03-29T12:47:36;2.30;;;1.70;;
9960;SDS011;5021;51.506;11.320;2024-03-29T12:50:03;1.67;;;1.40;;
9960;SDS011;5021;51.506;11.320;2024-03-29T12:52:39;3.70;;;1.50;;
9960;SDS011;5021;51.506;11.320;2024-03-29T12:55:06;1.63;;;1.33;;
9960;SDS011;5021;51.506;11.320;2024-03-29T12:57:35;1.20;;;1.10;;
9960;SDS011;5021;51.506;11.320;2024-03-29T13:00:03;1.27;;;1.17;;
9960;SDS011;5021;51.506;11.320;2024-03-29T13:02:33;1.50;;;1.40;;
9960;SDS011;5021;51.506;11.320;2024-03-29T13:04:59;1.97;;;1.37;;
9960;SDS011;5021;51.506;11.320;2024-03-29T13:07:26;3.60;;;1.83;;
9960;SDS011;5021;51.506;11.320;2024-03-29T13:09:52;1.40;;;1.30;;
9960;SDS011;5021;51.506;11.320;2024-03-29T13:12:18;1.70;;;1.27;;
9960;SDS011;5021;51.506;11.320;2024-03-29T13:14:44;1.60;;;1.50;;
9960;SDS011;5021;51.506;11.320;2024-03-29T13:17:10;4.97;;;1.50;;
9960;SDS011;5021;51.506;11.320;2024-03-29T13:19:37;1.73;;;1.57;;
9960;SDS011;5021;51.506;11.320;2024-03-29T13:22:03;2.40;;;1.50;;
9960;SDS011;5021;51.506;11.320;2024-03-29T13:24:31;1.87;;;1.60;;
9960;SDS011;5021;51.506;11.320;2024-03-29T13:26:57;1.73;;;1.57;;
9960;SDS011;5021;51.506;11.320;2024-03-29T13:29:23;1.23;;;1.13;;
9960;SDS011;5021;51.506;11.320;2024-03-29T13:31:49;1.83;;;1.43;;
9960;SDS011;5021;51.506;11.320;2024-03-29T13:34:15;2.30;;;1.40;;
9960;SDS011;5021;51.506;11.320;2024-03-29T13:36:42;3.87;;;2.10;;
9960;SDS011;5021;51.506;11.320;2024-03-29T13:39:09;2.03;;;1.40;;
9960;SDS011;5021;51.506;11.320;2024-03-29T13:41:36;3.20;;;1.50;;
9960;SDS011;5021;51.506;11.320;2024-03-29T13:44:02;5.07;;;1.50;;
9960;SDS011;5021;51.506;11.320;2024-03-29T13:46:34;3.00;;;1.70;;
9960;SDS011;5021;51.506;11.320;2024-03-29T13:49:00;2.47;;;1.70;;
9960;SDS011;5021;51.506;11.320;2024-03-29T13:51:27;2.07;;;1.57;;
9960;SDS011;5021;51.506;11.320;2024-03-29T13:53:53;1.80;;;1.60;;
9960;SDS011;5021;51.506;11.320;2024-03-29T13:56:19;2.47;;;2.27;;
9960;SDS011;5021;51.506;11.320;2024-03-29T13:58:46;1.53;;;1.43;;
9960;SDS011;5021;51.506;11.320;2024-03-29T14:01:12;2.87;;;1.50;;
9960;SDS011;5021;51.506;11.320;2024-03-29T14:03:38;2.47;;;1.40;;
9960;SDS011;5021;51.506;11.320;2024-03-29T14:06:04;1.67;;;1.30;;
9960;SDS011;5021;51.506;11.320;2024-03-29T14:08:30;1.20;;;1.10;;
9960;SDS011;5021;51.506;11.320;2024-03-29T14:10:56;1.03;;;1.00;;
9960;SDS011;5021;51.506;11.320;2024-03-29T14:13:22;1.47;;;1.27;;
9960;SDS011;5021;51.506;11.320;2024-03-29T14:15:48;1.97;;;1.30;;
9960;SDS011;5021;51.506;11.320;2024-03-29T14:18:14;1.47;;;1.23;;
9960;SDS011;5021;51.506;11.320;2024-03-29T14:20:40;1.93;;;1.50;;
9960;SDS011;5021;51.506;11.320;2024-03-29T14:23:06;1.63;;;1.37;;
9960;SDS011;5021;51.506;11.320;2024-03-29T14:25:35;1.93;;;1.40;;
9960;SDS011;5021;51.506;11.320;2024-03-29T14:28:01;3.00;;;1.50;;
9960;SDS011;5021;51.506;11.320;2024-03-29T14:30:28;2.63;;;1.70;;
9960;SDS011;5021;51.506;11.320;2024-03-29T14:32:55;1.60;;;1.50;;
9960;SDS011;5021;51.506;11.320;2024-03-29T14:35:21;1.80;;;1.70;;
9960;SDS011;5021;51.506;11.320;2024-03-29T14:37:47;2.27;;;1.40;;
9960;SDS011;5021;51.506;11.320;2024-03-29T14:40:13;1.77;;;1.60;;
9960;SDS011;5021;51.506;11.320;2024-03-29T14:42:43;1.87;;;1.77;;
9960;SDS011;5021;51.506;11.320;2024-03-29T14:45:10;2.13;;;1.70;;
9960;SDS011;5021;51.506;11.320;2024-03-29T14:47:39;1.93;;;1.73;;
9960;SDS011;5021;51.506;11.320;2024-03-29T14:50:05;1.90;;;1.50;;
9960;SDS011;5021;51.506;11.320;2024-03-29T14:52:33;2.93;;;1.70;;
9960;SDS011;5021;51.506;11.320;2024-03-29T14:54:59;3.57;;;2.30;;
9960;SDS011;5021;51.506;11.320;2024-03-29T14:57:25;2.67;;;2.00;;